sensor_id;sensor_type;location;lat;lon;timestamp;temperature;humidity
4356;DHT22;2191;51.482;7.408;2022-08-02T00:01:21;23.50;99.90
4356;DHT22;2191;51.482;7.408;2022-08-02T00:03:49;23.50;99.90
4356;DHT22;2191;51.482;7.408;2022-08-02T00:06:21;23.50;99.90
4356;DHT22;2191;51.482;7.408;2022-08-02T00:08:49;23.40;99.90
4356;DHT22;2191;51.482;7.408;2022-08-02T00:11:17;23.40;99.90
4356;DHT22;2191;51.482;7.408;2022-08-02T00:13:52;23.30;99.90
4356;DHT22;2191;51.482;7.408;2022-08-02T00:16:21;23.30;99.90
4356;DHT22;2191;51.482;7.408;2022-08-02T00:19:04;23.30;99.90
4356;DHT22;2191;51.482;7.408;2022-08-02T00:21:34;23.30;99.90
4356;DHT22;2191;51.482;7.408;2022-08-02T00:24:02;23.20;99.90
4356;DHT22;2191;51.482;7.408;2022-08-02T00:26:50;23.20;99.90
4356;DHT22;2191;51.482;7.408;2022-08-02T00:29:18;23.20;99.90
4356;DHT22;2191;51.482;7.408;2022-08-02T00:31:48;23.10;99.90
4356;DHT22;2191;51.482;7.408;2022-08-02T00:34:15;23.10;99.90
4356;DHT22;2191;51.482;7.408;2022-08-02T00:36:56;23.10;99.90
4356;DHT22;2191;51.482;7.408;2022-08-02T00:39:24;23.10;99.90
4356;DHT22;2191;51.482;7.408;2022-08-02T00:42:01;23.30;99.90
4356;DHT22;2191;51.482;7.408;2022-08-02T00:44:32;23.10;99.90
4356;DHT22;2191;51.482;7.408;2022-08-02T00:47:01;23.20;99.90
4356;DHT22;2191;51.482;7.408;2022-08-02T00:49:29;23.20;99.90
4356;DHT22;2191;51.482;7.408;2022-08-02T00:52:00;23.30;99.90
4356;DHT22;2191;51.482;7.408;2022-08-02T00:54:28;23.10;99.90
4356;DHT22;2191;51.482;7.408;2022-08-02T00:56:56;23.10;99.90
4356;DHT22;2191;51.482;7.408;2022-08-02T00:59:32;23.10;99.90
4356;DHT22;2191;51.482;7.408;2022-08-02T01:02:01;23.10;99.90
4356;DHT22;2191;51.482;7.408;2022-08-02T01:04:29;23.20;99.90
4356;DHT22;2191;51.482;7.408;2022-08-02T01:06:58;23.10;99.90
4356;DHT22;2191;51.482;7.408;2022-08-02T01:09:27;23.10;99.90
4356;DHT22;2191;51.482;7.408;2022-08-02T01:11:55;23.00;99.90
4356;DHT22;2191;51.482;7.408;2022-08-02T01:14:28;23.00;99.90
4356;DHT22;2191;51.482;7.408;2022-08-02T01:17:04;22.90;99.90
4356;DHT22;2191;51.482;7.408;2022-08-02T01:19:42;22.90;99.90
4356;DHT22;2191;51.482;7.408;2022-08-02T01:22:23;22.80;99.90
4356;DHT22;2191;51.482;7.408;2022-08-02T01:25:28;22.80;99.90
4356;DHT22;2191;51.482;7.408;2022-08-02T01:28:29;22.80;99.90
4356;DHT22;2191;51.482;7.408;2022-08-02T01:31:11;22.80;99.90
4356;DHT22;2191;51.482;7.408;2022-08-02T01:33:44;22.80;99.90
4356;DHT22;2191;51.482;7.408;2022-08-02T01:36:17;22.80;99.90
4356;DHT22;2191;51.482;7.408;2022-08-02T01:38:49;22.80;99.90
4356;DHT22;2191;51.482;7.408;2022-08-02T01:41:22;22.80;99.90
4356;DHT22;2191;51.482;7.408;2022-08-02T01:43:56;22.90;99.90
4356;DHT22;2191;51.482;7.408;2022-08-02T01:46:26;22.90;99.90
4356;DHT22;2191;51.482;7.408;2022-08-02T01:48:56;22.80;99.90
4356;DHT22;2191;51.482;7.408;2022-08-02T01:51:27;22.90;99.90
4356;DHT22;2191;51.482;7.408;2022-08-02T01:54:17;22.90;99.90
4356;DHT22;2191;51.482;7.408;2022-08-02T01:56:47;22.80;99.90
4356;DHT22;2191;51.482;7.408;2022-08-02T01:59:19;22.90;99.90
4356;DHT22;2191;51.482;7.408;2022-08-02T02:01:50;22.80;99.90
4356;DHT22;2191;51.482;7.408;2022-08-02T02:04:20;22.80;99.90
4356;DHT22;2191;51.482;7.408;2022-08-02T02:06:50;22.80;99.90
4356;DHT22;2191;51.482;7.408;2022-08-02T02:09:19;22.80;99.90
4356;DHT22;2191;51.482;7.408;2022-08-02T02:11:49;22.90;99.90
4356;DHT22;2191;51.482;7.408;2022-08-02T02:14:38;22.80;99.90
4356;DHT22;2191;51.482;7.408;2022-08-02T02:17:19;22.80;99.90
4356;DHT22;2191;51.482;7.408;2022-08-02T02:20:09;22.80;99.90
4356;DHT22;2191;51.482;7.408;2022-08-02T02:22:42;22.70;99.90
4356;DHT22;2191;51.482;7.408;2022-08-02T02:25:22;22.80;99.90
4356;DHT22;2191;51.482;7.408;2022-08-02T02:28:14;22.80;99.90
4356;DHT22;2191;51.482;7.408;2022-08-02T02:30:51;22.80;99.90
4356;DHT22;2191;51.482;7.408;2022-08-02T02:33:24;22.80;99.90
4356;DHT22;2191;51.482;7.408;2022-08-02T02:35:56;22.80;99.90
4356;DHT22;2191;51.482;7.408;2022-08-02T02:38:30;22.70;99.90
4356;DHT22;2191;51.482;7.408;2022-08-02T02:41:03;22.60;99.90
4356;DHT22;2191;51.482;7.408;2022-08-02T02:43:33;22.60;99.90
4356;DHT22;2191;51.482;7.408;2022-08-02T02:46:04;22.60;99.90
4356;DHT22;2191;51.482;7.408;2022-08-02T02:48:33;22.60;99.90
4356;DHT22;2191;51.482;7.408;2022-08-02T02:51:07;22.50;99.90
4356;DHT22;2191;51.482;7.408;2022-08-02T02:53:43;22.50;99.90
4356;DHT22;2191;51.482;7.408;2022-08-02T02:56:32;22.40;99.90
4356;DHT22;2191;51.482;7.408;2022-08-02T02:59:01;22.40;99.90
4356;DHT22;2191;51.482;7.408;2022-08-02T03:01:33;22.40;99.90
4356;DHT22;2191;51.482;7.408;2022-08-02T03:04:22;22.20;99.90
4356;DHT22;2191;51.482;7.408;2022-08-02T03:06:51;22.20;99.90
4356;DHT22;2191;51.482;7.408;2022-08-02T03:09:19;22.20;99.90
4356;DHT22;2191;51.482;7.408;2022-08-02T03:11:47;22.20;99.90
4356;DHT22;2191;51.482;7.408;2022-08-02T03:14:16;22.30;99.90
4356;DHT22;2191;51.482;7.408;2022-08-02T03:16:50;22.30;99.90
4356;DHT22;2191;51.482;7.408;2022-08-02T03:19:21;22.30;99.90
4356;DHT22;2191;51.482;7.408;2022-08-02T03:22:04;22.30;99.90
4356;DHT22;2191;51.482;7.408;2022-08-02T03:24:32;22.30;99.90
4356;DHT22;2191;51.482;7.408;2022-08-02T03:27:00;22.30;99.90
4356;DHT22;2191;51.482;7.408;2022-08-02T03:29:30;22.40;99.90
4356;DHT22;2191;51.482;7.408;2022-08-02T03:32:02;22.40;99.90
4356;DHT22;2191;51.482;7.408;2022-08-02T03:34:30;22.40;99.90
4356;DHT22;2191;51.482;7.408;2022-08-02T03:36:59;22.30;99.90
4356;DHT22;2191;51.482;7.408;2022-08-02T03:39:30;22.30;99.90
4356;DHT22;2191;51.482;7.408;2022-08-02T03:41:59;22.30;99.90
4356;DHT22;2191;51.482;7.408;2022-08-02T03:44:27;22.20;99.90
4356;DHT22;2191;51.482;7.408;2022-08-02T03:46:56;22.20;99.90
4356;DHT22;2191;51.482;7.408;2022-08-02T03:49:26;22.50;99.90
4356;DHT22;2191;51.482;7.408;2022-08-02T03:51:58;22.30;99.90
4356;DHT22;2191;51.482;7.408;2022-08-02T03:54:30;22.30;99.90
4356;DHT22;2191;51.482;7.408;2022-08-02T03:57:13;22.30;99.90
4356;DHT22;2191;51.482;7.408;2022-08-02T03:59:42;22.30;99.90
4356;DHT22;2191;51.482;7.408;2022-08-02T04:02:13;22.30;99.90
4356;DHT22;2191;51.482;7.408;2022-08-02T04:04:48;22.30;99.90
4356;DHT22;2191;51.482;7.408;2022-08-02T04:07:18;22.30;99.90
4356;DHT22;2191;51.482;7.408;2022-08-02T04:10:13;22.30;99.90
4356;DHT22;2191;51.482;7.408;2022-08-02T04:12:44;22.30;99.90
4356;DHT22;2191;51.482;7.408;2022-08-02T04:15:13;22.20;99.90
4356;DHT22;2191;51.482;7.408;2022-08-02T04:17:46;22.20;99.90
4356;DHT22;2191;51.482;7.408;2022-08-02T04:20:18;22.20;99.90
4356;DHT22;2191;51.482;7.408;2022-08-02T04:22:50;22.30;99.90
4356;DHT22;2191;51.482;7.408;2022-08-02T04:25:20;22.20;99.90
4356;DHT22;2191;51.482;7.408;2022-08-02T04:28:06;22.20;99.90
4356;DHT22;2191;51.482;7.408;2022-08-02T04:30:44;22.10;99.90
4356;DHT22;2191;51.482;7.408;2022-08-02T04:33:14;22.00;99.90
4356;DHT22;2191;51.482;7.408;2022-08-02T04:35:52;22.10;99.90
4356;DHT22;2191;51.482;7.408;2022-08-02T04:38:25;22.10;99.90
4356;DHT22;2191;51.482;7.408;2022-08-02T04:40:55;22.10;99.90
4356;DHT22;2191;51.482;7.408;2022-08-02T04:43:23;22.10;99.90
4356;DHT22;2191;51.482;7.408;2022-08-02T04:45:53;22.00;99.90
4356;DHT22;2191;51.482;7.408;2022-08-02T04:48:24;22.00;99.90
4356;DHT22;2191;51.482;7.408;2022-08-02T04:50:55;22.10;99.90
4356;DHT22;2191;51.482;7.408;2022-08-02T04:53:23;22.10;99.90
4356;DHT22;2191;51.482;7.408;2022-08-02T04:55:54;22.00;99.90
4356;DHT22;2191;51.482;7.408;2022-08-02T04:58:21;22.10;99.90
4356;DHT22;2191;51.482;7.408;2022-08-02T05:01:06;22.10;99.90
4356;DHT22;2191;51.482;7.408;2022-08-02T05:03:34;22.10;99.90
4356;DHT22;2191;51.482;7.408;2022-08-02T05:06:04;22.10;99.90
4356;DHT22;2191;51.482;7.408;2022-08-02T05:08:46;22.10;99.90
4356;DHT22;2191;51.482;7.408;2022-08-02T05:11:22;22.10;99.90
4356;DHT22;2191;51.482;7.408;2022-08-02T05:14:00;22.10;99.90
4356;DHT22;2191;51.482;7.408;2022-08-02T05:16:28;22.10;99.90
4356;DHT22;2191;51.482;7.408;2022-08-02T05:18:58;22.20;99.90
4356;DHT22;2191;51.482;7.408;2022-08-02T05:21:28;22.10;99.90
4356;DHT22;2191;51.482;7.408;2022-08-02T05:24:06;22.20;99.90
4356;DHT22;2191;51.482;7.408;2022-08-02T05:26:34;22.10;99.90
4356;DHT22;2191;51.482;7.408;2022-08-02T05:29:02;22.30;99.90
4356;DHT22;2191;51.482;7.408;2022-08-02T05:31:32;22.50;99.90
4356;DHT22;2191;51.482;7.408;2022-08-02T05:34:00;22.40;99.90
4356;DHT22;2191;51.482;7.408;2022-08-02T05:36:30;22.40;99.90
4356;DHT22;2191;51.482;7.408;2022-08-02T05:38:57;22.50;99.90
4356;DHT22;2191;51.482;7.408;2022-08-02T05:41:31;22.50;99.90
4356;DHT22;2191;51.482;7.408;2022-08-02T05:44:01;22.50;99.90
4356;DHT22;2191;51.482;7.408;2022-08-02T05:46:29;22.50;99.90
4356;DHT22;2191;51.482;7.408;2022-08-02T05:48:57;22.60;99.90
4356;DHT22;2191;51.482;7.408;2022-08-02T05:51:32;22.60;99.90
4356;DHT22;2191;51.482;7.408;2022-08-02T05:54:11;22.60;99.90
4356;DHT22;2191;51.482;7.408;2022-08-02T05:56:45;22.60;99.90
4356;DHT22;2191;51.482;7.408;2022-08-02T05:59:25;22.50;99.90
4356;DHT22;2191;51.482;7.408;2022-08-02T06:02:17;22.60;99.90
4356;DHT22;2191;51.482;7.408;2022-08-02T06:05:03;22.60;99.90
4356;DHT22;2191;51.482;7.408;2022-08-02T06:07:35;22.70;99.90
4356;DHT22;2191;51.482;7.408;2022-08-02T06:10:04;22.70;99.90
4356;DHT22;2191;51.482;7.408;2022-08-02T06:12:40;22.80;99.90
4356;DHT22;2191;51.482;7.408;2022-08-02T06:15:09;22.90;99.90
4356;DHT22;2191;51.482;7.408;2022-08-02T06:17:40;22.90;99.90
4356;DHT22;2191;51.482;7.408;2022-08-02T06:20:12;22.90;99.90
4356;DHT22;2191;51.482;7.408;2022-08-02T06:22:46;23.00;99.90
4356;DHT22;2191;51.482;7.408;2022-08-02T06:25:15;23.00;99.90
4356;DHT22;2191;51.482;7.408;2022-08-02T06:28:05;23.10;99.90
4356;DHT22;2191;51.482;7.408;2022-08-02T06:30:37;23.10;99.90
4356;DHT22;2191;51.482;7.408;2022-08-02T06:33:13;23.10;99.90
4356;DHT22;2191;51.482;7.408;2022-08-02T06:35:44;23.20;99.90
4356;DHT22;2191;51.482;7.408;2022-08-02T06:38:17;23.20;99.90
4356;DHT22;2191;51.482;7.408;2022-08-02T06:40:52;23.30;99.90
4356;DHT22;2191;51.482;7.408;2022-08-02T06:43:28;23.30;99.90
4356;DHT22;2191;51.482;7.408;2022-08-02T06:45:57;23.40;99.90
4356;DHT22;2191;51.482;7.408;2022-08-02T06:48:45;23.40;99.90
4356;DHT22;2191;51.482;7.408;2022-08-02T06:51:17;23.50;99.90
4356;DHT22;2191;51.482;7.408;2022-08-02T06:53:47;23.50;99.90
4356;DHT22;2191;51.482;7.408;2022-08-02T06:56:18;23.60;99.90
4356;DHT22;2191;51.482;7.408;2022-08-02T06:58:52;23.60;99.90
4356;DHT22;2191;51.482;7.408;2022-08-02T07:01:22;23.60;99.90
4356;DHT22;2191;51.482;7.408;2022-08-02T07:03:50;23.70;99.90
4356;DHT22;2191;51.482;7.408;2022-08-02T07:06:21;23.80;99.90
4356;DHT22;2191;51.482;7.408;2022-08-02T07:08:53;23.80;99.90
4356;DHT22;2191;51.482;7.408;2022-08-02T07:11:41;23.80;99.90
4356;DHT22;2191;51.482;7.408;2022-08-02T07:14:11;23.90;99.90
4356;DHT22;2191;51.482;7.408;2022-08-02T07:16:39;23.90;99.90
4356;DHT22;2191;51.482;7.408;2022-08-02T07:19:09;23.90;99.90
4356;DHT22;2191;51.482;7.408;2022-08-02T07:21:37;23.90;99.90
4356;DHT22;2191;51.482;7.408;2022-08-02T07:24:29;24.00;99.90
4356;DHT22;2191;51.482;7.408;2022-08-02T07:27:05;24.00;99.90
4356;DHT22;2191;51.482;7.408;2022-08-02T07:29:38;24.00;99.90
4356;DHT22;2191;51.482;7.408;2022-08-02T07:32:14;24.00;99.90
4356;DHT22;2191;51.482;7.408;2022-08-02T07:34:42;24.00;99.90
4356;DHT22;2191;51.482;7.408;2022-08-02T07:37:20;24.10;99.90
4356;DHT22;2191;51.482;7.408;2022-08-02T07:40:11;24.00;99.90
4356;DHT22;2191;51.482;7.408;2022-08-02T07:42:49;24.00;99.90
4356;DHT22;2191;51.482;7.408;2022-08-02T07:45:25;24.10;99.90
4356;DHT22;2191;51.482;7.408;2022-08-02T07:47:53;24.10;99.90
4356;DHT22;2191;51.482;7.408;2022-08-02T07:50:25;24.20;99.90
4356;DHT22;2191;51.482;7.408;2022-08-02T07:53:00;24.00;99.90
4356;DHT22;2191;51.482;7.408;2022-08-02T07:55:29;23.80;99.90
4356;DHT22;2191;51.482;7.408;2022-08-02T07:58:06;24.00;99.90
4356;DHT22;2191;51.482;7.408;2022-08-02T08:00:37;24.00;99.90
4356;DHT22;2191;51.482;7.408;2022-08-02T08:03:06;23.90;99.90
4356;DHT22;2191;51.482;7.408;2022-08-02T08:05:35;23.80;99.90
4356;DHT22;2191;51.482;7.408;2022-08-02T08:08:03;23.90;99.90
4356;DHT22;2191;51.482;7.408;2022-08-02T08:10:40;24.00;99.90
4356;DHT22;2191;51.482;7.408;2022-08-02T08:13:08;23.90;99.90
4356;DHT22;2191;51.482;7.408;2022-08-02T08:15:36;24.00;99.90
4356;DHT22;2191;51.482;7.408;2022-08-02T08:18:04;23.70;99.90
4356;DHT22;2191;51.482;7.408;2022-08-02T08:20:33;23.90;99.90
4356;DHT22;2191;51.482;7.408;2022-08-02T08:23:01;24.00;99.90
4356;DHT22;2191;51.482;7.408;2022-08-02T08:25:31;24.00;99.90
4356;DHT22;2191;51.482;7.408;2022-08-02T08:28:11;23.90;99.90
4356;DHT22;2191;51.482;7.408;2022-08-02T08:30:39;24.10;99.90
4356;DHT22;2191;51.482;7.408;2022-08-02T08:33:10;24.30;99.90
4356;DHT22;2191;51.482;7.408;2022-08-02T08:35:47;24.40;99.90
4356;DHT22;2191;51.482;7.408;2022-08-02T08:38:23;24.60;99.90
4356;DHT22;2191;51.482;7.408;2022-08-02T08:40:57;24.70;99.90
4356;DHT22;2191;51.482;7.408;2022-08-02T08:43:30;24.80;99.90
4356;DHT22;2191;51.482;7.408;2022-08-02T08:45:58;24.80;99.90
4356;DHT22;2191;51.482;7.408;2022-08-02T08:48:26;24.80;99.90
4356;DHT22;2191;51.482;7.408;2022-08-02T08:51:03;24.70;99.90
4356;DHT22;2191;51.482;7.408;2022-08-02T08:53:38;24.70;99.90
4356;DHT22;2191;51.482;7.408;2022-08-02T08:56:12;24.60;99.90
4356;DHT22;2191;51.482;7.408;2022-08-02T08:58:44;24.90;99.90
4356;DHT22;2191;51.482;7.408;2022-08-02T09:01:13;25.00;99.90
4356;DHT22;2191;51.482;7.408;2022-08-02T09:03:44;24.60;99.90
4356;DHT22;2191;51.482;7.408;2022-08-02T09:06:14;24.50;99.90
4356;DHT22;2191;51.482;7.408;2022-08-02T09:08:42;24.60;99.90
4356;DHT22;2191;51.482;7.408;2022-08-02T09:11:14;24.80;99.90
4356;DHT22;2191;51.482;7.408;2022-08-02T09:13:54;24.70;99.90
4356;DHT22;2191;51.482;7.408;2022-08-02T09:16:30;24.80;99.90
4356;DHT22;2191;51.482;7.408;2022-08-02T09:19:17;25.00;99.90
4356;DHT22;2191;51.482;7.408;2022-08-02T09:21:47;25.10;99.90
4356;DHT22;2191;51.482;7.408;2022-08-02T09:24:40;25.10;99.90
4356;DHT22;2191;51.482;7.408;2022-08-02T09:27:13;24.90;99.90
4356;DHT22;2191;51.482;7.408;2022-08-02T09:29:49;25.00;99.90
4356;DHT22;2191;51.482;7.408;2022-08-02T09:32:46;25.10;99.90
4356;DHT22;2191;51.482;7.408;2022-08-02T09:35:30;25.30;99.90
4356;DHT22;2191;51.482;7.408;2022-08-02T09:38:18;25.20;99.90
4356;DHT22;2191;51.482;7.408;2022-08-02T09:40:51;25.30;99.90
4356;DHT22;2191;51.482;7.408;2022-08-02T09:43:19;25.30;99.90
4356;DHT22;2191;51.482;7.408;2022-08-02T09:45:49;25.50;99.90
4356;DHT22;2191;51.482;7.408;2022-08-02T09:48:17;25.60;99.90
4356;DHT22;2191;51.482;7.408;2022-08-02T09:50:47;25.70;99.90
4356;DHT22;2191;51.482;7.408;2022-08-02T09:53:15;26.10;99.90
4356;DHT22;2191;51.482;7.408;2022-08-02T09:55:54;25.90;99.90
4356;DHT22;2191;51.482;7.408;2022-08-02T09:58:25;26.00;99.90
4356;DHT22;2191;51.482;7.408;2022-08-02T10:00:56;25.90;99.90
4356;DHT22;2191;51.482;7.408;2022-08-02T10:03:24;26.00;99.90
4356;DHT22;2191;51.482;7.408;2022-08-02T10:06:04;26.00;99.90
4356;DHT22;2191;51.482;7.408;2022-08-02T10:08:34;26.00;99.90
4356;DHT22;2191;51.482;7.408;2022-08-02T10:11:05;26.00;99.90
4356;DHT22;2191;51.482;7.408;2022-08-02T10:13:34;26.10;99.90
4356;DHT22;2191;51.482;7.408;2022-08-02T10:16:04;26.30;99.90
4356;DHT22;2191;51.482;7.408;2022-08-02T10:18:35;26.20;99.90
4356;DHT22;2191;51.482;7.408;2022-08-02T10:21:12;26.30;99.90
4356;DHT22;2191;51.482;7.408;2022-08-02T10:23:44;26.10;99.90
4356;DHT22;2191;51.482;7.408;2022-08-02T10:26:17;26.10;99.90
4356;DHT22;2191;51.482;7.408;2022-08-02T10:28:53;26.00;99.90
4356;DHT22;2191;51.482;7.408;2022-08-02T10:31:26;25.90;99.90
4356;DHT22;2191;51.482;7.408;2022-08-02T10:33:58;26.00;99.90
4356;DHT22;2191;51.482;7.408;2022-08-02T10:36:41;26.20;99.90
4356;DHT22;2191;51.482;7.408;2022-08-02T10:39:10;26.40;99.90
4356;DHT22;2191;51.482;7.408;2022-08-02T10:41:43;26.50;99.90
4356;DHT22;2191;51.482;7.408;2022-08-02T10:44:27;26.50;99.90
4356;DHT22;2191;51.482;7.408;2022-08-02T10:47:22;26.60;99.90
4356;DHT22;2191;51.482;7.408;2022-08-02T10:49:52;26.60;99.90
4356;DHT22;2191;51.482;7.408;2022-08-02T10:52:20;26.80;99.90
4356;DHT22;2191;51.482;7.408;2022-08-02T10:54:55;26.90;99.90
4356;DHT22;2191;51.482;7.408;2022-08-02T10:57:27;26.80;99.90
4356;DHT22;2191;51.482;7.408;2022-08-02T10:59:56;26.60;99.90
4356;DHT22;2191;51.482;7.408;2022-08-02T11:02:38;26.80;99.90
4356;DHT22;2191;51.482;7.408;2022-08-02T11:05:08;26.90;99.90
4356;DHT22;2191;51.482;7.408;2022-08-02T11:07:41;26.90;99.90
4356;DHT22;2191;51.482;7.408;2022-08-02T11:10:42;26.80;99.90
4356;DHT22;2191;51.482;7.408;2022-08-02T11:13:21;26.90;99.90
4356;DHT22;2191;51.482;7.408;2022-08-02T11:15:57;27.10;99.90
4356;DHT22;2191;51.482;7.408;2022-08-02T11:19:01;27.20;99.90
4356;DHT22;2191;51.482;7.408;2022-08-02T11:21:33;27.40;99.90
4356;DHT22;2191;51.482;7.408;2022-08-02T11:24:33;27.20;99.90
4356;DHT22;2191;51.482;7.408;2022-08-02T11:27:02;27.40;99.90
4356;DHT22;2191;51.482;7.408;2022-08-02T11:29:38;27.40;99.90
4356;DHT22;2191;51.482;7.408;2022-08-02T11:32:07;27.30;99.90
4356;DHT22;2191;51.482;7.408;2022-08-02T11:34:38;27.20;99.90
4356;DHT22;2191;51.482;7.408;2022-08-02T11:37:06;27.40;99.90
4356;DHT22;2191;51.482;7.408;2022-08-02T11:39:34;27.50;99.90
4356;DHT22;2191;51.482;7.408;2022-08-02T11:42:02;27.70;99.90
4356;DHT22;2191;51.482;7.408;2022-08-02T11:44:39;27.50;99.90
4356;DHT22;2191;51.482;7.408;2022-08-02T11:47:07;27.50;99.90
4356;DHT22;2191;51.482;7.408;2022-08-02T11:49:39;27.70;99.90
4356;DHT22;2191;51.482;7.408;2022-08-02T11:52:08;27.90;99.90
4356;DHT22;2191;51.482;7.408;2022-08-02T11:54:39;28.00;99.90
4356;DHT22;2191;51.482;7.408;2022-08-02T11:57:15;28.10;99.90
4356;DHT22;2191;51.482;7.408;2022-08-02T11:59:48;28.10;99.90
4356;DHT22;2191;51.482;7.408;2022-08-02T12:02:18;28.20;99.90
4356;DHT22;2191;51.482;7.408;2022-08-02T12:04:58;28.30;99.90
4356;DHT22;2191;51.482;7.408;2022-08-02T12:07:29;28.40;99.90
4356;DHT22;2191;51.482;7.408;2022-08-02T12:10:06;28.20;99.90
4356;DHT22;2191;51.482;7.408;2022-08-02T12:12:48;28.20;99.90
4356;DHT22;2191;51.482;7.408;2022-08-02T12:15:30;28.30;99.90
4356;DHT22;2191;51.482;7.408;2022-08-02T12:18:02;28.10;99.90
4356;DHT22;2191;51.482;7.408;2022-08-02T12:20:49;28.10;99.90
4356;DHT22;2191;51.482;7.408;2022-08-02T12:23:19;28.10;99.90
4356;DHT22;2191;51.482;7.408;2022-08-02T12:25:58;28.10;99.90
4356;DHT22;2191;51.482;7.408;2022-08-02T12:28:26;28.00;99.90
4356;DHT22;2191;51.482;7.408;2022-08-02T12:30:59;28.10;99.90
4356;DHT22;2191;51.482;7.408;2022-08-02T12:33:42;28.20;99.90
4356;DHT22;2191;51.482;7.408;2022-08-02T12:36:19;28.30;99.90
4356;DHT22;2191;51.482;7.408;2022-08-02T12:38:50;28.40;99.90
4356;DHT22;2191;51.482;7.408;2022-08-02T12:41:18;28.50;99.90
4356;DHT22;2191;51.482;7.408;2022-08-02T12:43:58;28.60;99.90
4356;DHT22;2191;51.482;7.408;2022-08-02T12:46:26;28.70;99.90
4356;DHT22;2191;51.482;7.408;2022-08-02T12:48:54;28.80;99.90
4356;DHT22;2191;51.482;7.408;2022-08-02T12:51:51;28.80;99.90
4356;DHT22;2191;51.482;7.408;2022-08-02T12:54:28;28.70;99.90
4356;DHT22;2191;51.482;7.408;2022-08-02T12:57:08;28.70;99.90
4356;DHT22;2191;51.482;7.408;2022-08-02T12:59:38;28.60;99.90
4356;DHT22;2191;51.482;7.408;2022-08-02T13:02:11;28.70;99.90
4356;DHT22;2191;51.482;7.408;2022-08-02T13:04:43;28.80;99.90
4356;DHT22;2191;51.482;7.408;2022-08-02T13:07:18;28.70;99.90
4356;DHT22;2191;51.482;7.408;2022-08-02T13:09:48;28.80;99.90
4356;DHT22;2191;51.482;7.408;2022-08-02T13:12:26;29.00;99.90
4356;DHT22;2191;51.482;7.408;2022-08-02T13:14:56;29.00;99.90
4356;DHT22;2191;51.482;7.408;2022-08-02T13:17:23;29.00;99.90
4356;DHT22;2191;51.482;7.408;2022-08-02T13:19:54;29.10;99.90
4356;DHT22;2191;51.482;7.408;2022-08-02T13:22:37;29.00;99.90
4356;DHT22;2191;51.482;7.408;2022-08-02T13:25:18;28.90;99.90
4356;DHT22;2191;51.482;7.408;2022-08-02T13:27:48;29.00;99.90
4356;DHT22;2191;51.482;7.408;2022-08-02T13:30:16;29.00;99.90
4356;DHT22;2191;51.482;7.408;2022-08-02T13:32:46;29.10;99.90
4356;DHT22;2191;51.482;7.408;2022-08-02T13:35:14;29.10;99.90
4356;DHT22;2191;51.482;7.408;2022-08-02T13:37:45;29.20;99.90
4356;DHT22;2191;51.482;7.408;2022-08-02T13:40:16;29.30;99.90
4356;DHT22;2191;51.482;7.408;2022-08-02T13:42:47;29.40;99.90
4356;DHT22;2191;51.482;7.408;2022-08-02T13:45:16;29.50;99.90
4356;DHT22;2191;51.482;7.408;2022-08-02T13:47:46;29.50;99.90
4356;DHT22;2191;51.482;7.408;2022-08-02T13:50:31;29.60;99.90
4356;DHT22;2191;51.482;7.408;2022-08-02T13:53:00;29.60;99.90
4356;DHT22;2191;51.482;7.408;2022-08-02T13:55:29;29.60;99.90
4356;DHT22;2191;51.482;7.408;2022-08-02T13:57:57;29.60;99.90
4356;DHT22;2191;51.482;7.408;2022-08-02T14:00:25;29.20;99.90
4356;DHT22;2191;51.482;7.408;2022-08-02T14:03:03;29.10;99.90
4356;DHT22;2191;51.482;7.408;2022-08-02T14:05:31;29.00;99.90
4356;DHT22;2191;51.482;7.408;2022-08-02T14:08:15;28.80;99.90
4356;DHT22;2191;51.482;7.408;2022-08-02T14:10:50;29.20;99.90
4356;DHT22;2191;51.482;7.408;2022-08-02T14:13:24;29.50;99.90
4356;DHT22;2191;51.482;7.408;2022-08-02T14:16:01;29.70;99.90
4356;DHT22;2191;51.482;7.408;2022-08-02T14:18:30;29.70;99.90
4356;DHT22;2191;51.482;7.408;2022-08-02T14:21:01;29.70;99.90
4356;DHT22;2191;51.482;7.408;2022-08-02T14:23:30;29.60;99.90
4356;DHT22;2191;51.482;7.408;2022-08-02T14:26:16;29.60;99.90
4356;DHT22;2191;51.482;7.408;2022-08-02T14:28:53;29.50;99.90
4356;DHT22;2191;51.482;7.408;2022-08-02T14:31:21;29.30;99.90
4356;DHT22;2191;51.482;7.408;2022-08-02T14:33:55;29.40;99.90
4356;DHT22;2191;51.482;7.408;2022-08-02T14:36:23;29.50;99.90
4356;DHT22;2191;51.482;7.408;2022-08-02T14:38:55;29.60;99.90
4356;DHT22;2191;51.482;7.408;2022-08-02T14:41:23;29.70;99.90
4356;DHT22;2191;51.482;7.408;2022-08-02T14:43:51;29.60;99.90
4356;DHT22;2191;51.482;7.408;2022-08-02T14:46:32;29.70;99.90
4356;DHT22;2191;51.482;7.408;2022-08-02T14:49:00;29.90;99.90
4356;DHT22;2191;51.482;7.408;2022-08-02T14:51:32;29.90;99.90
4356;DHT22;2191;51.482;7.408;2022-08-02T14:54:03;30.00;99.90
4356;DHT22;2191;51.482;7.408;2022-08-02T14:56:34;30.00;99.90
4356;DHT22;2191;51.482;7.408;2022-08-02T14:59:11;30.10;99.90
4356;DHT22;2191;51.482;7.408;2022-08-02T15:01:39;30.10;99.90
4356;DHT22;2191;51.482;7.408;2022-08-02T15:04:07;30.30;99.90
4356;DHT22;2191;51.482;7.408;2022-08-02T15:06:35;30.30;99.90
4356;DHT22;2191;51.482;7.408;2022-08-02T15:09:07;30.30;99.90
4356;DHT22;2191;51.482;7.408;2022-08-02T15:11:40;30.40;99.90
4356;DHT22;2191;51.482;7.408;2022-08-02T15:14:14;30.30;99.90
4356;DHT22;2191;51.482;7.408;2022-08-02T15:16:50;30.40;99.90
4356;DHT22;2191;51.482;7.408;2022-08-02T15:19:24;30.40;99.90
4356;DHT22;2191;51.482;7.408;2022-08-02T15:22:12;30.40;99.90
4356;DHT22;2191;51.482;7.408;2022-08-02T15:24:47;30.20;99.90
4356;DHT22;2191;51.482;7.408;2022-08-02T15:27:15;30.10;99.90
4356;DHT22;2191;51.482;7.408;2022-08-02T15:29:44;30.10;99.90
4356;DHT22;2191;51.482;7.408;2022-08-02T15:32:13;30.10;99.90
4356;DHT22;2191;51.482;7.408;2022-08-02T15:34:50;29.90;99.90
4356;DHT22;2191;51.482;7.408;2022-08-02T15:37:18;30.00;99.90
4356;DHT22;2191;51.482;7.408;2022-08-02T15:39:47;29.90;99.90
4356;DHT22;2191;51.482;7.408;2022-08-02T15:42:18;30.00;99.90
4356;DHT22;2191;51.482;7.408;2022-08-02T15:44:59;29.90;99.90
4356;DHT22;2191;51.482;7.408;2022-08-02T15:47:27;29.90;99.90
4356;DHT22;2191;51.482;7.408;2022-08-02T15:50:06;30.00;99.90
4356;DHT22;2191;51.482;7.408;2022-08-02T15:52:36;30.00;99.90
4356;DHT22;2191;51.482;7.408;2022-08-02T15:55:08;29.70;99.90
4356;DHT22;2191;51.482;7.408;2022-08-02T15:57:36;29.80;99.90
4356;DHT22;2191;51.482;7.408;2022-08-02T16:00:05;29.90;99.90
4356;DHT22;2191;51.482;7.408;2022-08-02T16:02:44;29.90;99.90
4356;DHT22;2191;51.482;7.408;2022-08-02T16:05:14;29.80;99.90
4356;DHT22;2191;51.482;7.408;2022-08-02T16:07:44;29.50;99.90
4356;DHT22;2191;51.482;7.408;2022-08-02T16:10:21;29.30;99.90
4356;DHT22;2191;51.482;7.408;2022-08-02T16:12:52;29.20;99.90
4356;DHT22;2191;51.482;7.408;2022-08-02T16:15:40;29.30;99.90
4356;DHT22;2191;51.482;7.408;2022-08-02T16:18:10;29.30;99.90
4356;DHT22;2191;51.482;7.408;2022-08-02T16:20:40;29.30;99.90
4356;DHT22;2191;51.482;7.408;2022-08-02T16:23:10;29.40;99.90
4356;DHT22;2191;51.482;7.408;2022-08-02T16:25:42;29.40;99.90
4356;DHT22;2191;51.482;7.408;2022-08-02T16:28:10;29.50;99.90
4356;DHT22;2191;51.482;7.408;2022-08-02T16:30:40;29.50;99.90
4356;DHT22;2191;51.482;7.408;2022-08-02T16:33:31;29.50;99.90
4356;DHT22;2191;51.482;7.408;2022-08-02T16:35:58;29.20;99.90
4356;DHT22;2191;51.482;7.408;2022-08-02T16:38:27;29.20;99.90
4356;DHT22;2191;51.482;7.408;2022-08-02T16:40:58;29.30;99.90
4356;DHT22;2191;51.482;7.408;2022-08-02T16:43:28;29.30;99.90